BOI weather

Boise Air Terminal/Gowen Field
Boise, Idaho, United States

Public forecast

Using degrees Fahrenheit for public forecast. Weather courtesy of forecast.io.

Current aviation weather report (METAR) for Boise Air Terminal/Gowen Field

Retrieved 2019/10/16 07:53 UTC (23 minutes ago):

KBOI 160753Z 00000KT 9SM CLR 09/01 A3005 RMK AO2 SLP164 T00940011

Aviation forecast (TAF) for Boise Air Terminal/Gowen Field

Retrieved 2019/10/16 06:22 UTC (2 hours ago):

TAF KBOI 160520Z 1606/1706 13008KT P6SM BKN200 FM161800 14010KT P6SM SCT200 FM170100 VRB05KT P6SM BKN200